sensor_id;sensor_type;location;lat;lon;timestamp;pressure;altitude;pressure_sealevel;temperature;humidity
51315;BME280;65787;59.922;10.742;2023-05-01T00:00:50;100851.53;;;13.49;23.80
51315;BME280;65787;59.922;10.742;2023-05-01T00:03:16;100850.47;;;13.44;23.95
51315;BME280;65787;59.922;10.742;2023-05-01T00:05:42;100853.81;;;13.46;23.88
51315;BME280;65787;59.922;10.742;2023-05-01T00:08:08;100856.28;;;13.41;23.53
51315;BME280;65787;59.922;10.742;2023-05-01T00:10:34;100854.63;;;13.40;23.92
51315;BME280;65787;59.922;10.742;2023-05-01T00:13:00;100850.06;;;13.40;23.78
51315;BME280;65787;59.922;10.742;2023-05-01T00:15:25;100847.78;;;13.44;24.00
51315;BME280;65787;59.922;10.742;2023-05-01T00:17:51;100844.06;;;13.45;24.12
51315;BME280;65787;59.922;10.742;2023-05-01T00:20:17;100843.66;;;13.41;23.87
51315;BME280;65787;59.922;10.742;2023-05-01T00:22:43;100845.06;;;13.37;23.86
51315;BME280;65787;59.922;10.742;2023-05-01T00:25:08;100842.41;;;13.44;23.83
51315;BME280;65787;59.922;10.742;2023-05-01T00:27:34;100840.09;;;13.41;23.70
51315;BME280;65787;59.922;10.742;2023-05-01T00:29:59;100839.50;;;13.52;23.76
51315;BME280;65787;59.922;10.742;2023-05-01T00:32:31;100832.25;;;13.52;23.88
51315;BME280;65787;59.922;10.742;2023-05-01T00:34:56;100835.16;;;13.58;23.79
51315;BME280;65787;59.922;10.742;2023-05-01T00:37:22;100836.44;;;13.62;23.46
51315;BME280;65787;59.922;10.742;2023-05-01T00:39:47;100843.25;;;13.51;23.87
51315;BME280;65787;59.922;10.742;2023-05-01T00:42:13;100837.22;;;13.49;23.93
51315;BME280;65787;59.922;10.742;2023-05-01T00:44:38;100832.88;;;13.61;23.39
51315;BME280;65787;59.922;10.742;2023-05-01T00:47:03;100839.94;;;13.62;23.77
51315;BME280;65787;59.922;10.742;2023-05-01T00:49:29;100828.09;;;13.57;23.58
51315;BME280;65787;59.922;10.742;2023-05-01T00:51:54;100829.31;;;13.41;23.94
51315;BME280;65787;59.922;10.742;2023-05-01T00:54:20;100818.13;;;13.50;24.01
51315;BME280;65787;59.922;10.742;2023-05-01T00:56:47;100819.94;;;13.36;24.11
51315;BME280;65787;59.922;10.742;2023-05-01T00:59:13;100816.44;;;13.36;23.92
51315;BME280;65787;59.922;10.742;2023-05-01T01:01:38;100815.81;;;13.34;24.34
51315;BME280;65787;59.922;10.742;2023-05-01T01:04:06;100813.75;;;13.36;23.89
51315;BME280;65787;59.922;10.742;2023-05-01T01:06:45;100814.16;;;13.40;24.17
51315;BME280;65787;59.922;10.742;2023-05-01T01:15:01;100805.44;;;13.38;24.17
51315;BME280;65787;59.922;10.742;2023-05-01T01:21:57;100801.06;;;13.36;24.17
51315;BME280;65787;59.922;10.742;2023-05-01T01:27:12;100788.84;;;13.41;23.83
51315;BME280;65787;59.922;10.742;2023-05-01T01:32:30;100786.75;;;13.36;24.52
51315;BME280;65787;59.922;10.742;2023-05-01T01:35:00;100793.19;;;13.35;24.42
51315;BME280;65787;59.922;10.742;2023-05-01T01:37:39;100779.47;;;13.30;24.35
51315;BME280;65787;59.922;10.742;2023-05-01T01:40:40;100787.94;;;13.27;24.43
51315;BME280;65787;59.922;10.742;2023-05-01T01:43:04;100777.56;;;13.24;24.27
51315;BME280;65787;59.922;10.742;2023-05-01T01:47:59;100779.19;;;13.18;24.95
51315;BME280;65787;59.922;10.742;2023-05-01T01:50:26;100771.94;;;13.18;25.01
51315;BME280;65787;59.922;10.742;2023-05-01T01:52:52;100770.69;;;13.14;25.18
51315;BME280;65787;59.922;10.742;2023-05-01T01:55:22;100769.00;;;13.07;25.45
51315;BME280;65787;59.922;10.742;2023-05-01T01:57:49;100759.91;;;13.08;25.04
51315;BME280;65787;59.922;10.742;2023-05-01T02:00:15;100765.28;;;13.08;25.45
51315;BME280;65787;59.922;10.742;2023-05-01T02:02:41;100764.66;;;13.06;25.21
51315;BME280;65787;59.922;10.742;2023-05-01T02:05:07;100760.72;;;13.08;25.37
51315;BME280;65787;59.922;10.742;2023-05-01T02:07:35;100764.03;;;13.10;25.05
51315;BME280;65787;59.922;10.742;2023-05-01T02:10:02;100769.84;;;13.07;25.32
51315;BME280;65787;59.922;10.742;2023-05-01T02:12:31;100764.47;;;13.14;24.97
51315;BME280;65787;59.922;10.742;2023-05-01T02:14:57;100760.94;;;13.20;25.21
51315;BME280;65787;59.922;10.742;2023-05-01T02:17:23;100757.47;;;13.33;25.13
51315;BME280;65787;59.922;10.742;2023-05-01T02:19:51;100752.88;;;13.27;25.23
51315;BME280;65787;59.922;10.742;2023-05-01T02:22:19;100751.44;;;13.24;24.84
51315;BME280;65787;59.922;10.742;2023-05-01T02:24:45;100749.75;;;13.10;25.49
51315;BME280;65787;59.922;10.742;2023-05-01T02:27:15;100745.78;;;13.06;25.49
51315;BME280;65787;59.922;10.742;2023-05-01T02:29:41;100750.31;;;12.98;25.43
51315;BME280;65787;59.922;10.742;2023-05-01T02:32:07;100743.66;;;12.94;25.29
51315;BME280;65787;59.922;10.742;2023-05-01T02:34:35;100744.09;;;12.98;26.00
51315;BME280;65787;59.922;10.742;2023-05-01T02:37:01;100743.28;;;13.11;25.55
51315;BME280;65787;59.922;10.742;2023-05-01T02:39:26;100738.16;;;13.23;25.39
51315;BME280;65787;59.922;10.742;2023-05-01T02:41:51;100723.84;;;13.29;25.76
51315;BME280;65787;59.922;10.742;2023-05-01T02:44:19;100730.50;;;13.26;25.62
51315;BME280;65787;59.922;10.742;2023-05-01T02:46:44;100726.31;;;13.24;25.04
51315;BME280;65787;59.922;10.742;2023-05-01T02:49:11;100725.28;;;13.18;25.42
51315;BME280;65787;59.922;10.742;2023-05-01T02:51:36;100726.28;;;13.10;25.19
51315;BME280;65787;59.922;10.742;2023-05-01T02:54:02;100724.84;;;13.14;25.21
51315;BME280;65787;59.922;10.742;2023-05-01T02:56:28;100723.00;;;13.22;25.09
51315;BME280;65787;59.922;10.742;2023-05-01T02:58:53;100723.81;;;13.22;24.82
51315;BME280;65787;59.922;10.742;2023-05-01T03:01:19;100715.97;;;13.21;25.04
51315;BME280;65787;59.922;10.742;2023-05-01T03:03:44;100701.81;;;13.18;25.16
51315;BME280;65787;59.922;10.742;2023-05-01T03:06:10;100707.44;;;13.24;25.87
51315;BME280;65787;59.922;10.742;2023-05-01T03:08:35;100708.06;;;13.26;25.84
51315;BME280;65787;59.922;10.742;2023-05-01T03:11:03;100700.81;;;13.26;26.20
51315;BME280;65787;59.922;10.742;2023-05-01T03:13:28;100696.84;;;13.22;26.14
51315;BME280;65787;59.922;10.742;2023-05-01T03:15:54;100692.91;;;13.18;27.01
51315;BME280;65787;59.922;10.742;2023-05-01T03:18:19;100692.91;;;13.18;26.56
51315;BME280;65787;59.922;10.742;2023-05-01T03:20:54;100679.41;;;13.05;26.14
51315;BME280;65787;59.922;10.742;2023-05-01T03:23:21;100683.53;;;13.07;26.98
51315;BME280;65787;59.922;10.742;2023-05-01T03:25:47;100677.72;;;13.04;27.17
51315;BME280;65787;59.922;10.742;2023-05-01T03:28:12;100675.25;;;13.02;26.79
51315;BME280;65787;59.922;10.742;2023-05-01T03:30:38;100674.25;;;13.10;26.27
51315;BME280;65787;59.922;10.742;2023-05-01T03:33:03;100672.38;;;13.17;26.21
51315;BME280;65787;59.922;10.742;2023-05-01T03:35:29;100675.91;;;13.17;26.73
51315;BME280;65787;59.922;10.742;2023-05-01T03:37:54;100686.25;;;13.07;26.43
51315;BME280;65787;59.922;10.742;2023-05-01T03:40:20;100673.63;;;13.08;26.49
51315;BME280;65787;59.922;10.742;2023-05-01T03:42:45;100678.81;;;13.09;26.93
51315;BME280;65787;59.922;10.742;2023-05-01T03:45:11;100680.38;;;12.77;27.80
51315;BME280;65787;59.922;10.742;2023-05-01T03:47:36;100670.88;;;12.94;27.49
51315;BME280;65787;59.922;10.742;2023-05-01T03:50:01;100666.75;;;12.98;27.54
51315;BME280;65787;59.922;10.742;2023-05-01T03:52:27;100669.63;;;12.84;28.11
51315;BME280;65787;59.922;10.742;2023-05-01T03:54:52;100668.41;;;13.00;27.95
51315;BME280;65787;59.922;10.742;2023-05-01T03:57:17;100665.53;;;13.08;27.50
51315;BME280;65787;59.922;10.742;2023-05-01T03:59:45;100662.00;;;13.14;27.69
51315;BME280;65787;59.922;10.742;2023-05-01T04:02:10;100666.94;;;13.04;28.05
51315;BME280;65787;59.922;10.742;2023-05-01T04:04:36;100665.72;;;12.93;28.60
51315;BME280;65787;59.922;10.742;2023-05-01T04:07:01;100661.75;;;12.82;29.24
51315;BME280;65787;59.922;10.742;2023-05-01T04:09:27;100668.13;;;12.68;29.84
51315;BME280;65787;59.922;10.742;2023-05-01T04:11:54;100674.56;;;12.25;31.79
51315;BME280;65787;59.922;10.742;2023-05-01T04:14:19;100675.00;;;11.94;33.40
51315;BME280;65787;59.922;10.742;2023-05-01T04:16:45;100676.31;;;11.98;34.54
51315;BME280;65787;59.922;10.742;2023-05-01T04:19:10;100669.75;;;11.86;35.77
51315;BME280;65787;59.922;10.742;2023-05-01T04:21:35;100672.44;;;11.86;36.08
51315;BME280;65787;59.922;10.742;2023-05-01T04:24:01;100673.66;;;11.55;37.63
51315;BME280;65787;59.922;10.742;2023-05-01T04:26:26;100674.59;;;11.40;39.46
51315;BME280;65787;59.922;10.742;2023-05-01T04:28:52;100672.69;;;11.13;41.26
51315;BME280;65787;59.922;10.742;2023-05-01T04:31:17;100675.69;;;10.81;42.29
51315;BME280;65787;59.922;10.742;2023-05-01T04:33:42;100678.75;;;10.78;42.89
51315;BME280;65787;59.922;10.742;2023-05-01T04:36:08;100676.09;;;10.63;43.52
51315;BME280;65787;59.922;10.742;2023-05-01T04:38:33;100678.81;;;10.49;43.64
51315;BME280;65787;59.922;10.742;2023-05-01T04:41:02;100673.75;;;10.39;43.83
51315;BME280;65787;59.922;10.742;2023-05-01T04:43:27;100677.44;;;10.38;45.65
51315;BME280;65787;59.922;10.742;2023-05-01T04:45:52;100671.50;;;10.27;45.71
51315;BME280;65787;59.922;10.742;2023-05-01T04:48:18;100676.78;;;10.36;45.95
51315;BME280;65787;59.922;10.742;2023-05-01T04:50:43;100671.22;;;10.37;46.15
51315;BME280;65787;59.922;10.742;2023-05-01T04:53:08;100671.50;;;10.42;46.99
51315;BME280;65787;59.922;10.742;2023-05-01T04:55:34;100679.00;;;10.47;46.60
51315;BME280;65787;59.922;10.742;2023-05-01T04:57:59;100676.47;;;10.01;60.00
51315;BME280;65787;59.922;10.742;2023-05-01T05:00:26;100659.91;;;9.97;61.11
51315;BME280;65787;59.922;10.742;2023-05-01T05:02:52;100661.13;;;9.95;60.76
51315;BME280;65787;59.922;10.742;2023-05-01T05:05:17;100657.44;;;10.11;60.22
51315;BME280;65787;59.922;10.742;2023-05-01T05:07:42;100661.78;;;10.12;58.87
51315;BME280;65787;59.922;10.742;2023-05-01T05:10:07;100649.88;;;9.99;56.40
51315;BME280;65787;59.922;10.742;2023-05-01T05:12:33;100642.91;;;10.05;57.13
51315;BME280;65787;59.922;10.742;2023-05-01T05:14:58;100650.75;;;10.21;55.89
51315;BME280;65787;59.922;10.742;2023-05-01T05:17:23;100650.38;;;10.24;53.61
51315;BME280;65787;59.922;10.742;2023-05-01T05:19:48;100647.53;;;10.41;50.88
51315;BME280;65787;59.922;10.742;2023-05-01T05:22:14;100640.16;;;10.64;50.37
51315;BME280;65787;59.922;10.742;2023-05-01T05:24:39;100649.13;;;10.72;50.61
51315;BME280;65787;59.922;10.742;2023-05-01T05:27:04;100639.94;;;10.81;49.73
51315;BME280;65787;59.922;10.742;2023-05-01T05:29:31;100641.47;;;10.90;49.20
51315;BME280;65787;59.922;10.742;2023-05-01T05:31:57;100629.34;;;11.01;49.34
51315;BME280;65787;59.922;10.742;2023-05-01T05:34:23;100635.19;;;11.04;49.25
51315;BME280;65787;59.922;10.742;2023-05-01T05:36:49;100628.72;;;11.20;48.28
51315;BME280;65787;59.922;10.742;2023-05-01T05:39:14;100628.72;;;11.20;48.73
51315;BME280;65787;59.922;10.742;2023-05-01T05:41:39;100622.75;;;11.25;48.09
51315;BME280;65787;59.922;10.742;2023-05-01T05:44:04;100620.25;;;11.23;49.38
51315;BME280;65787;59.922;10.742;2023-05-01T05:46:30;100617.63;;;11.30;48.50
51315;BME280;65787;59.922;10.742;2023-05-01T05:48:55;100618.59;;;11.51;48.55
51315;BME280;65787;59.922;10.742;2023-05-01T05:51:20;100616.31;;;11.48;48.57
51315;BME280;65787;59.922;10.742;2023-05-01T05:53:46;100616.03;;;11.36;47.78
51315;BME280;65787;59.922;10.742;2023-05-01T05:56:11;100611.81;;;11.55;47.87
51315;BME280;65787;59.922;10.742;2023-05-01T05:58:36;100603.09;;;11.53;48.98
51315;BME280;65787;59.922;10.742;2023-05-01T06:01:01;100607.91;;;11.57;48.00
51315;BME280;65787;59.922;10.742;2023-05-01T06:03:27;100601.16;;;11.68;48.95
51315;BME280;65787;59.922;10.742;2023-05-01T06:05:52;100595.16;;;11.73;49.09
51315;BME280;65787;59.922;10.742;2023-05-01T06:08:18;100594.72;;;11.69;47.61
51315;BME280;65787;59.922;10.742;2023-05-01T06:10:43;100589.16;;;11.71;48.51
51315;BME280;65787;59.922;10.742;2023-05-01T06:13:09;100588.16;;;11.78;48.63
51315;BME280;65787;59.922;10.742;2023-05-01T06:15:35;100585.09;;;11.81;48.28
51315;BME280;65787;59.922;10.742;2023-05-01T06:18:01;100584.47;;;11.79;46.99
51315;BME280;65787;59.922;10.742;2023-05-01T06:20:26;100579.69;;;11.81;48.05
51315;BME280;65787;59.922;10.742;2023-05-01T06:22:52;100581.44;;;11.96;48.85
51315;BME280;65787;59.922;10.742;2023-05-01T06:25:17;100568.63;;;11.98;48.54
51315;BME280;65787;59.922;10.742;2023-05-01T06:27:43;100571.72;;;12.01;48.67
51315;BME280;65787;59.922;10.742;2023-05-01T06:30:08;100563.66;;;11.95;48.13
51315;BME280;65787;59.922;10.742;2023-05-01T06:32:34;100565.09;;;11.97;47.58
51315;BME280;65787;59.922;10.742;2023-05-01T06:35:00;100562.22;;;11.99;48.86
51315;BME280;65787;59.922;10.742;2023-05-01T06:37:25;100558.50;;;12.07;48.21
51315;BME280;65787;59.922;10.742;2023-05-01T06:39:50;100550.44;;;12.07;47.85
51315;BME280;65787;59.922;10.742;2023-05-01T06:42:16;100551.69;;;12.11;47.66
51315;BME280;65787;59.922;10.742;2023-05-01T06:44:41;100549.41;;;12.14;48.58
51315;BME280;65787;59.922;10.742;2023-05-01T06:47:07;100539.69;;;12.13;48.42
51315;BME280;65787;59.922;10.742;2023-05-01T06:49:32;100537.88;;;12.20;48.64
51315;BME280;65787;59.922;10.742;2023-05-01T06:51:58;100529.78;;;12.27;47.31
51315;BME280;65787;59.922;10.742;2023-05-01T06:54:23;100539.53;;;12.28;48.05
51315;BME280;65787;59.922;10.742;2023-05-01T06:56:48;100528.56;;;12.30;47.68
51315;BME280;65787;59.922;10.742;2023-05-01T06:59:14;100529.63;;;12.42;48.25
51315;BME280;65787;59.922;10.742;2023-05-01T07:01:39;100537.53;;;12.50;48.33
51315;BME280;65787;59.922;10.742;2023-05-01T07:04:04;100529.22;;;12.45;46.97
51315;BME280;65787;59.922;10.742;2023-05-01T07:06:30;100524.69;;;12.52;48.46
51315;BME280;65787;59.922;10.742;2023-05-01T07:08:56;100525.06;;;12.49;47.70
51315;BME280;65787;59.922;10.742;2023-05-01T07:11:21;100521.78;;;12.61;47.36
51315;BME280;65787;59.922;10.742;2023-05-01T07:13:47;100523.88;;;12.65;46.97
51315;BME280;65787;59.922;10.742;2023-05-01T07:16:13;100519.94;;;12.61;47.43
51315;BME280;65787;59.922;10.742;2023-05-01T07:18:39;100520.75;;;12.62;46.81
51315;BME280;65787;59.922;10.742;2023-05-01T07:21:04;100523.03;;;12.71;48.08
51315;BME280;65787;59.922;10.742;2023-05-01T07:23:29;100514.94;;;12.71;47.35
51315;BME280;65787;59.922;10.742;2023-05-01T07:25:55;100508.53;;;12.66;46.05
51315;BME280;65787;59.922;10.742;2023-05-01T07:28:21;100514.31;;;12.63;47.74
51315;BME280;65787;59.922;10.742;2023-05-01T07:30:47;100504.59;;;12.62;47.10
51315;BME280;65787;59.922;10.742;2023-05-01T07:33:12;100520.34;;;12.58;46.86
51315;BME280;65787;59.922;10.742;2023-05-01T07:35:37;100507.06;;;12.56;47.06
51315;BME280;65787;59.922;10.742;2023-05-01T07:38:02;100496.91;;;12.65;46.75
51315;BME280;65787;59.922;10.742;2023-05-01T07:40:28;100494.22;;;12.72;47.87
51315;BME280;65787;59.922;10.742;2023-05-01T07:42:53;100491.09;;;12.68;46.82
51315;BME280;65787;59.922;10.742;2023-05-01T07:45:19;100482.63;;;12.71;45.86
51315;BME280;65787;59.922;10.742;2023-05-01T07:47:44;100485.50;;;12.83;46.38
51315;BME280;65787;59.922;10.742;2023-05-01T07:50:10;100480.94;;;12.90;47.54
51315;BME280;65787;59.922;10.742;2023-05-01T07:52:35;100477.00;;;12.79;46.56
51315;BME280;65787;59.922;10.742;2023-05-01T07:55:01;100475.97;;;12.81;47.09
51315;BME280;65787;59.922;10.742;2023-05-01T07:57:27;100478.06;;;12.85;47.19
51315;BME280;65787;59.922;10.742;2023-05-01T07:59:53;100474.09;;;12.94;47.01
51315;BME280;65787;59.922;10.742;2023-05-01T08:02:18;100477.59;;;13.02;46.59
51315;BME280;65787;59.922;10.742;2023-05-01T08:04:44;100456.47;;;12.92;47.05
51315;BME280;65787;59.922;10.742;2023-05-01T08:07:10;100460.41;;;12.96;47.21
51315;BME280;65787;59.922;10.742;2023-05-01T08:09:35;100469.09;;;12.98;47.01
51315;BME280;65787;59.922;10.742;2023-05-01T08:12:01;100466.41;;;12.98;46.25
51315;BME280;65787;59.922;10.742;2023-05-01T08:14:27;100454.38;;;13.07;47.50
51315;BME280;65787;59.922;10.742;2023-05-01T08:16:53;100453.56;;;13.07;46.07
51315;BME280;65787;59.922;10.742;2023-05-01T08:19:19;100454.59;;;12.99;46.45
51315;BME280;65787;59.922;10.742;2023-05-01T08:21:45;100451.50;;;12.95;46.22
51315;BME280;65787;59.922;10.742;2023-05-01T08:24:10;100448.78;;;13.09;46.78
51315;BME280;65787;59.922;10.742;2023-05-01T08:26:35;100444.16;;;13.29;47.59
51315;BME280;65787;59.922;10.742;2023-05-01T08:29:01;100440.81;;;13.47;47.27
51315;BME280;65787;59.922;10.742;2023-05-01T08:31:26;100447.03;;;13.54;46.40
51315;BME280;65787;59.922;10.742;2023-05-01T08:33:51;100444.06;;;13.63;47.33
51315;BME280;65787;59.922;10.742;2023-05-01T08:36:16;100435.16;;;13.62;47.15
51315;BME280;65787;59.922;10.742;2023-05-01T08:38:42;100433.75;;;13.53;46.67
51315;BME280;65787;59.922;10.742;2023-05-01T08:41:08;100421.91;;;13.54;46.77
51315;BME280;65787;59.922;10.742;2023-05-01T08:43:34;100423.34;;;13.57;46.85
51315;BME280;65787;59.922;10.742;2023-05-01T08:46:00;100423.34;;;13.57;45.80
51315;BME280;65787;59.922;10.742;2023-05-01T08:48:26;100422.34;;;13.51;45.49
51315;BME280;65787;59.922;10.742;2023-05-01T08:50:52;100416.13;;;13.50;47.47
51315;BME280;65787;59.922;10.742;2023-05-01T08:53:19;100407.56;;;13.53;46.94
51315;BME280;65787;59.922;10.742;2023-05-01T08:55:46;100398.06;;;13.51;46.10
51315;BME280;65787;59.922;10.742;2023-05-01T08:58:13;100404.06;;;13.53;45.56
51315;BME280;65787;59.922;10.742;2023-05-01T09:00:39;100398.66;;;13.60;46.44
51315;BME280;65787;59.922;10.742;2023-05-01T09:03:06;100391.28;;;13.73;45.49
51315;BME280;65787;59.922;10.742;2023-05-01T09:05:32;100385.19;;;13.85;44.75
51315;BME280;65787;59.922;10.742;2023-05-01T09:07:57;100328.25;;;13.61;45.35
51315;BME280;65787;59.922;10.742;2023-05-01T09:10:23;100371.63;;;13.98;44.32
51315;BME280;65787;59.922;10.742;2023-05-01T09:12:53;100372.47;;;13.99;44.47
51315;BME280;65787;59.922;10.742;2023-05-01T09:15:20;100382.63;;;13.97;44.88
51315;BME280;65787;59.922;10.742;2023-05-01T09:17:45;100376.00;;;13.92;45.30
51315;BME280;65787;59.922;10.742;2023-05-01T09:20:11;100367.81;;;14.06;44.33
51315;BME280;65787;59.922;10.742;2023-05-01T09:22:37;100357.16;;;14.18;44.00
51315;BME280;65787;59.922;10.742;2023-05-01T09:25:02;100355.66;;;14.22;44.43
51315;BME280;65787;59.922;10.742;2023-05-01T09:27:30;100353.91;;;14.59;46.53
51315;BME280;65787;59.922;10.742;2023-05-01T09:29:57;100356.09;;;14.87;44.18
51315;BME280;65787;59.922;10.742;2023-05-01T09:32:23;100357.00;;;14.81;44.13
51315;BME280;65787;59.922;10.742;2023-05-01T09:34:50;100349.28;;;14.85;45.16
51315;BME280;65787;59.922;10.742;2023-05-01T09:42:30;100332.56;;;15.43;42.66
51315;BME280;65787;59.922;10.742;2023-05-01T09:44:59;100323.50;;;15.80;45.12
51315;BME280;65787;59.922;10.742;2023-05-01T09:47:25;100330.75;;;15.98;44.11
51315;BME280;65787;59.922;10.742;2023-05-01T09:49:54;100320.16;;;16.20;43.99
51315;BME280;65787;59.922;10.742;2023-05-01T09:52:21;100318.88;;;16.34;42.80
51315;BME280;65787;59.922;10.742;2023-05-01T09:54:46;100322.88;;;16.20;42.27
51315;BME280;65787;59.922;10.742;2023-05-01T09:57:11;100313.41;;;15.99;42.91
51315;BME280;65787;59.922;10.742;2023-05-01T09:59:36;100317.06;;;15.93;41.81
51315;BME280;65787;59.922;10.742;2023-05-01T10:02:02;100319.63;;;15.76;41.34
51315;BME280;65787;59.922;10.742;2023-05-01T10:04:28;100315.38;;;15.49;43.38
51315;BME280;65787;59.922;10.742;2023-05-01T10:06:54;100314.84;;;15.29;41.16
51315;BME280;65787;59.922;10.742;2023-05-01T10:09:26;100308.38;;;15.12;41.83
51315;BME280;65787;59.922;10.742;2023-05-01T10:11:53;100303.91;;;15.05;43.91
51315;BME280;65787;59.922;10.742;2023-05-01T10:14:20;100305.63;;;14.81;44.35
51315;BME280;65787;59.922;10.742;2023-05-01T10:16:47;100295.34;;;14.71;43.69
51315;BME280;65787;59.922;10.742;2023-05-01T10:19:13;100292.53;;;14.41;43.05
51315;BME280;65787;59.922;10.742;2023-05-01T10:21:40;100288.59;;;14.37;43.47
51315;BME280;65787;59.922;10.742;2023-05-01T10:24:06;100287.84;;;14.30;43.78
51315;BME280;65787;59.922;10.742;2023-05-01T10:26:33;100287.63;;;14.31;42.96
51315;BME280;65787;59.922;10.742;2023-05-01T10:28:59;100285.69;;;14.39;42.79
51315;BME280;65787;59.922;10.742;2023-05-01T10:31:25;100281.03;;;14.46;42.77
51315;BME280;65787;59.922;10.742;2023-05-01T10:33:52;100280.03;;;14.65;43.46
51315;BME280;65787;59.922;10.742;2023-05-01T10:38:46;100272.28;;;14.87;43.72
51315;BME280;65787;59.922;10.742;2023-05-01T10:41:15;100275.28;;;14.79;41.77
51315;BME280;65787;59.922;10.742;2023-05-01T10:43:41;100273.63;;;14.97;43.19
51315;BME280;65787;59.922;10.742;2023-05-01T10:51:07;100272.34;;;15.60;41.60
51315;BME280;65787;59.922;10.742;2023-05-01T10:53:36;100274.19;;;15.78;43.37
51315;BME280;65787;59.922;10.742;2023-05-01T10:56:02;100261.81;;;15.82;41.80
51315;BME280;65787;59.922;10.742;2023-05-01T11:03:45;100250.66;;;16.14;42.77
51315;BME280;65787;59.922;10.742;2023-05-01T11:06:10;100241.09;;;16.23;43.61
51315;BME280;65787;59.922;10.742;2023-05-01T11:08:36;100241.19;;;16.40;42.25
51315;BME280;65787;59.922;10.742;2023-05-01T11:21:48;100229.94;;;16.83;40.33
51315;BME280;65787;59.922;10.742;2023-05-01T11:24:14;100234.06;;;16.86;40.18
51315;BME280;65787;59.922;10.742;2023-05-01T11:26:41;100229.56;;;16.80;41.48
51315;BME280;65787;59.922;10.742;2023-05-01T11:29:10;100227.59;;;16.75;39.96
51315;BME280;65787;59.922;10.742;2023-05-01T11:31:36;100212.69;;;16.90;38.43
51315;BME280;65787;59.922;10.742;2023-05-01T11:34:01;100208.53;;;17.28;40.57
51315;BME280;65787;59.922;10.742;2023-05-01T11:36:27;100216.63;;;17.56;38.09
51315;BME280;65787;59.922;10.742;2023-05-01T11:38:53;100210.47;;;17.61;40.74
51315;BME280;65787;59.922;10.742;2023-05-01T11:41:22;100219.91;;;17.75;36.96
51315;BME280;65787;59.922;10.742;2023-05-01T11:43:56;100213.09;;;18.07;41.08
51315;BME280;65787;59.922;10.742;2023-05-01T11:48:51;100210.41;;;18.29;38.14
51315;BME280;65787;59.922;10.742;2023-05-01T11:51:17;100217.19;;;18.48;36.30
51315;BME280;65787;59.922;10.742;2023-05-01T11:53:56;100202.53;;;18.93;37.97
51315;BME280;65787;59.922;10.742;2023-05-01T11:56:21;100210.75;;;19.26;37.54
51315;BME280;65787;59.922;10.742;2023-05-01T11:58:47;100200.63;;;19.53;39.34
51315;BME280;65787;59.922;10.742;2023-05-01T12:01:12;100199.81;;;19.85;37.63
51315;BME280;65787;59.922;10.742;2023-05-01T12:03:41;100197.78;;;20.03;37.87
51315;BME280;65787;59.922;10.742;2023-05-01T12:06:07;100193.63;;;20.48;36.06
51315;BME280;65787;59.922;10.742;2023-05-01T12:08:32;100185.06;;;20.87;38.28
51315;BME280;65787;59.922;10.742;2023-05-01T12:10:58;100185.13;;;21.02;36.04
51315;BME280;65787;59.922;10.742;2023-05-01T12:13:23;100182.34;;;20.92;33.59
51315;BME280;65787;59.922;10.742;2023-05-01T12:15:50;100170.09;;;21.05;38.27
51315;BME280;65787;59.922;10.742;2023-05-01T12:18:16;100160.56;;;21.38;35.48
51315;BME280;65787;59.922;10.742;2023-05-01T12:20:45;100157.53;;;21.96;36.07
51315;BME280;65787;59.922;10.742;2023-05-01T12:23:11;100160.91;;;22.53;33.75
51315;BME280;65787;59.922;10.742;2023-05-01T12:25:38;100151.94;;;22.92;33.70
51315;BME280;65787;59.922;10.742;2023-05-01T12:28:08;100155.38;;;23.13;31.59
51315;BME280;65787;59.922;10.742;2023-05-01T12:30:37;100158.47;;;23.41;31.69
51315;BME280;65787;59.922;10.742;2023-05-01T12:33:13;100148.13;;;23.62;29.97
51315;BME280;65787;59.922;10.742;2023-05-01T12:35:39;100148.97;;;23.63;29.38
51315;BME280;65787;59.922;10.742;2023-05-01T12:38:15;100148.88;;;23.68;31.85
51315;BME280;65787;59.922;10.742;2023-05-01T12:43:16;100151.63;;;23.68;31.17
51315;BME280;65787;59.922;10.742;2023-05-01T12:45:41;100140.91;;;23.42;29.48
51315;BME280;65787;59.922;10.742;2023-05-01T12:48:11;100142.63;;;23.33;29.33
51315;BME280;65787;59.922;10.742;2023-05-01T12:50:36;100140.47;;;23.30;28.60
51315;BME280;65787;59.922;10.742;2023-05-01T12:53:02;100134.56;;;23.47;28.13
51315;BME280;65787;59.922;10.742;2023-05-01T12:55:27;100144.41;;;23.77;28.17
51315;BME280;65787;59.922;10.742;2023-05-01T12:57:53;100143.59;;;24.06;28.52
51315;BME280;65787;59.922;10.742;2023-05-01T13:00:18;100148.50;;;24.95;29.61
51315;BME280;65787;59.922;10.742;2023-05-01T13:02:44;100138.69;;;25.60;26.96
51315;BME280;65787;59.922;10.742;2023-05-01T13:05:10;100136.28;;;25.20;27.76
51315;BME280;65787;59.922;10.742;2023-05-01T13:07:36;100141.66;;;25.30;28.41
51315;BME280;65787;59.922;10.742;2023-05-01T13:10:02;100129.59;;;26.06;27.10
51315;BME280;65787;59.922;10.742;2023-05-01T13:12:30;100126.69;;;27.26;25.32
51315;BME280;65787;59.922;10.742;2023-05-01T13:14:55;100125.84;;;28.85;24.12
51315;BME280;65787;59.922;10.742;2023-05-01T13:17:25;100125.53;;;29.22;22.31
51315;BME280;65787;59.922;10.742;2023-05-01T13:19:52;100121.28;;;28.98;22.49
51315;BME280;65787;59.922;10.742;2023-05-01T13:22:18;100121.53;;;28.35;24.77
51315;BME280;65787;59.922;10.742;2023-05-01T13:24:45;100122.63;;;28.08;23.72
51315;BME280;65787;59.922;10.742;2023-05-01T13:27:11;100119.16;;;27.17;25.35